createdAt,value
2019-05-19T00:00:14.956Z,49.30
2019-05-19T00:02:46.797Z,47.73
2019-05-19T00:05:19.681Z,50.27
2019-05-19T00:07:50.552Z,49.03
2019-05-19T00:10:22.144Z,48.60
2019-05-19T00:12:49.722Z,48.70
2019-05-19T00:15:19.942Z,48.10
2019-05-19T00:17:48.757Z,49.23
2019-05-19T00:20:18.320Z,51.73
2019-05-19T00:22:47.153Z,52.37
2019-05-19T00:25:15.929Z,53.70
2019-05-19T00:27:47.745Z,51.90
2019-05-19T00:30:16.971Z,50.53
2019-05-19T00:32:46.544Z,52.87
2019-05-19T00:35:16.296Z,51.90
2019-05-19T00:37:45.386Z,51.80
2019-05-19T00:40:14.837Z,52.90
2019-05-19T00:42:43.742Z,50.43
2019-05-19T00:45:14.278Z,50.50
2019-05-19T00:47:42.952Z,52.70
2019-05-19T00:50:18.162Z,55.00
2019-05-19T00:52:45.335Z,55.77
2019-05-19T00:55:14.121Z,52.30
2019-05-19T00:57:56.808Z,54.90
2019-05-19T01:00:25.579Z,53.57
2019-05-19T01:02:56.854Z,52.67
2019-05-19T01:05:25.457Z,54.90
2019-05-19T01:07:54.372Z,54.23
2019-05-19T01:10:24.262Z,53.03
2019-05-19T01:12:53.541Z,53.87
2019-05-19T01:15:45.238Z,52.97
2019-05-19T01:18:14.128Z,53.87
2019-05-19T01:20:51.424Z,55.33
2019-05-19T01:23:32.736Z,56.10
2019-05-19T01:26:16.621Z,51.63
2019-05-19T01:28:58.056Z,54.03
2019-05-19T01:31:46.429Z,53.10
2019-05-19T01:34:20.162Z,53.47
2019-05-19T01:37:07.855Z,52.73
2019-05-19T01:39:49.410Z,53.80
2019-05-19T01:42:19.697Z,54.97
2019-05-19T01:44:48.422Z,55.20
2019-05-19T01:47:17.453Z,56.13
2019-05-19T01:49:46.225Z,52.87
2019-05-19T01:52:14.913Z,53.27
2019-05-19T01:54:43.641Z,52.40
2019-05-19T01:57:12.388Z,55.63
2019-05-19T01:59:41.091Z,52.70
2019-05-19T02:02:09.829Z,51.30
2019-05-19T02:04:38.546Z,57.07
2019-05-19T02:07:07.370Z,56.60
2019-05-19T02:09:36.018Z,54.63
2019-05-19T02:12:04.759Z,55.93
2019-05-19T02:14:33.866Z,54.63
2019-05-19T02:17:03.003Z,51.90
2019-05-19T02:19:31.840Z,53.70
2019-05-19T02:22:00.605Z,54.47
2019-05-19T02:24:29.315Z,55.97
2019-05-19T02:26:58.040Z,53.73
2019-05-19T02:29:26.868Z,53.10
2019-05-19T02:31:55.765Z,56.87
2019-05-19T02:34:24.438Z,53.90
2019-05-19T02:36:53.363Z,53.30
2019-05-19T02:39:22.119Z,55.40
2019-05-19T02:41:52.523Z,54.03
2019-05-19T02:44:24.563Z,52.07
2019-05-19T02:46:54.911Z,56.23
2019-05-19T02:49:24.562Z,58.43
2019-05-19T02:51:54.827Z,58.27
2019-05-19T02:54:24.508Z,54.77
2019-05-19T02:56:53.392Z,57.10
2019-05-19T02:59:22.730Z,53.80
2019-05-19T03:02:02.098Z,53.47
2019-05-19T03:04:31.210Z,53.97
2019-05-19T03:07:00.048Z,55.20
2019-05-19T03:09:29.108Z,53.07
2019-05-19T03:11:57.816Z,55.20
2019-05-19T03:14:26.600Z,58.17
2019-05-19T03:16:55.570Z,57.03
2019-05-19T03:19:24.237Z,54.83
2019-05-19T03:21:52.878Z,56.90
2019-05-19T03:24:21.561Z,56.03
2019-05-19T03:26:50.821Z,57.50
2019-05-19T03:29:21.167Z,57.20
2019-05-19T03:31:51.411Z,60.67
2019-05-19T03:34:20.065Z,56.93
2019-05-19T03:36:48.840Z,62.87
2019-05-19T03:39:17.967Z,61.73
2019-05-19T03:41:46.841Z,55.17
2019-05-19T03:44:15.478Z,54.33
2019-05-19T03:46:44.089Z,58.90
2019-05-19T03:49:12.716Z,63.10
2019-05-19T03:51:41.360Z,57.50
2019-05-19T03:54:10.026Z,57.77
2019-05-19T03:56:38.694Z,59.40
2019-05-19T03:59:07.391Z,55.07
2019-05-19T04:01:36.118Z,62.20
2019-05-19T04:04:04.881Z,58.30
2019-05-19T04:06:33.960Z,62.37
2019-05-19T04:09:03.631Z,55.43
2019-05-19T04:11:32.631Z,66.07
2019-05-19T04:14:01.680Z,69.90
2019-05-19T04:16:30.380Z,61.00
2019-05-19T04:18:59.186Z,70.27
2019-05-19T04:21:27.903Z,68.83
2019-05-19T04:23:56.686Z,67.47
2019-05-19T04:26:25.363Z,70.30
2019-05-19T04:28:54.088Z,70.07
2019-05-19T04:31:22.735Z,72.23
2019-05-19T04:33:51.592Z,71.97
2019-05-19T04:36:20.205Z,68.50
2019-05-19T04:38:48.975Z,68.53
2019-05-19T04:41:17.711Z,72.37
2019-05-19T04:43:46.397Z,72.47
2019-05-19T04:46:15.187Z,68.67
2019-05-19T04:48:43.862Z,72.30
2019-05-19T04:51:12.685Z,72.03
2019-05-19T04:53:41.746Z,73.57
2019-05-19T04:56:12.228Z,72.87
2019-05-19T04:58:40.952Z,72.10
2019-05-19T05:01:09.679Z,73.27
2019-05-19T05:03:38.369Z,69.90
2019-05-19T05:06:07.139Z,70.20
2019-05-19T05:08:35.778Z,68.70
2019-05-19T05:11:04.493Z,69.27
2019-05-19T05:13:34.722Z,67.77
2019-05-19T05:16:03.455Z,70.57
2019-05-19T05:18:32.251Z,67.20
2019-05-19T05:21:02.650Z,66.43
2019-05-19T05:23:31.322Z,66.57
2019-05-19T05:26:00.256Z,67.10
2019-05-19T05:28:29.349Z,67.33
2019-05-19T05:30:58.007Z,67.90
2019-05-19T05:33:26.637Z,66.83
2019-05-19T05:35:55.283Z,64.57
2019-05-19T05:38:24.102Z,63.43
2019-05-19T05:40:52.733Z,63.30
2019-05-19T05:43:21.464Z,68.80
2019-05-19T05:45:50.262Z,67.47
2019-05-19T05:48:18.978Z,63.33
2019-05-19T05:50:47.704Z,66.77
2019-05-19T05:53:16.470Z,63.53
2019-05-19T05:55:45.262Z,63.90
2019-05-19T05:58:14.024Z,61.87
2019-05-19T06:00:42.819Z,61.93
2019-05-19T06:03:11.701Z,62.23
2019-05-19T06:05:40.688Z,62.83
2019-05-19T06:08:09.515Z,59.83
2019-05-19T06:10:38.231Z,57.60
2019-05-19T06:13:07.033Z,55.47
2019-05-19T06:15:35.841Z,55.40
2019-05-19T06:18:04.511Z,53.53
2019-05-19T06:20:33.501Z,52.73
2019-05-19T06:23:02.363Z,52.80
2019-05-19T06:25:31.050Z,52.20
2019-05-19T06:27:59.762Z,50.97
2019-05-19T06:30:28.510Z,50.20
2019-05-19T06:32:58.917Z,51.27
2019-05-19T06:35:27.620Z,51.90
2019-05-19T06:37:56.528Z,50.63
2019-05-19T06:40:25.748Z,49.27
2019-05-19T06:42:54.579Z,48.30
2019-05-19T06:45:23.660Z,46.07
2019-05-19T06:47:52.632Z,47.13
2019-05-19T06:50:22.191Z,48.27
2019-05-19T06:52:51.050Z,48.73
2019-05-19T06:55:19.993Z,48.90
2019-05-19T06:57:49.099Z,47.60
2019-05-19T07:00:18.112Z,47.70
2019-05-19T07:02:46.741Z,47.33
2019-05-19T07:05:15.969Z,49.67
2019-05-19T07:07:44.781Z,48.90
2019-05-19T07:10:13.756Z,50.00
2019-05-19T07:12:42.614Z,50.53
2019-05-19T07:15:12.020Z,49.80
2019-05-19T07:17:40.793Z,49.97
2019-05-19T07:20:09.724Z,49.77
2019-05-19T07:22:38.461Z,49.07
2019-05-19T07:25:07.507Z,49.93
2019-05-19T07:27:36.223Z,51.80
2019-05-19T07:30:06.317Z,51.77
2019-05-19T07:32:35.232Z,50.90
2019-05-19T07:35:05.121Z,51.60
2019-05-19T07:37:33.921Z,51.47
2019-05-19T07:40:02.918Z,50.50
2019-05-19T07:42:31.583Z,50.93
2019-05-19T07:45:00.288Z,51.30
2019-05-19T07:47:29.098Z,52.03
2019-05-19T07:49:58.048Z,50.83
2019-05-19T07:52:28.380Z,52.03
2019-05-19T07:54:57.131Z,53.53
2019-05-19T07:57:25.885Z,48.93
2019-05-19T07:59:54.502Z,52.27
2019-05-19T08:02:23.745Z,50.70
2019-05-19T08:04:52.585Z,53.30
2019-05-19T08:07:21.351Z,52.00
2019-05-19T08:09:50.061Z,50.63
2019-05-19T08:12:19.025Z,51.63
2019-05-19T08:14:53.398Z,49.80
2019-05-19T08:17:25.656Z,50.10
2019-05-19T08:19:52.382Z,47.17
2019-05-19T08:22:21.231Z,46.53
2019-05-19T08:24:49.884Z,45.03
2019-05-19T08:27:18.545Z,43.93
2019-05-19T08:29:47.210Z,42.13
2019-05-19T08:32:16.197Z,40.27
2019-05-19T08:34:44.936Z,40.07
2019-05-19T08:37:13.726Z,36.93
2019-05-19T08:39:42.776Z,36.30
2019-05-19T08:42:11.696Z,35.50
2019-05-19T08:44:40.355Z,36.40
2019-05-19T08:47:09.206Z,35.23
2019-05-19T08:49:38.075Z,35.43
2019-05-19T08:52:07.065Z,36.57
2019-05-19T08:54:35.917Z,34.63
2019-05-19T08:57:05.156Z,35.17
2019-05-19T08:59:33.828Z,34.90
2019-05-19T09:02:02.793Z,33.10
2019-05-19T09:04:31.740Z,36.80
2019-05-19T09:07:03.901Z,34.53
2019-05-19T09:09:35.336Z,33.70
2019-05-19T09:12:04.394Z,34.33
2019-05-19T09:14:33.493Z,33.77
2019-05-19T09:17:05.901Z,32.63
2019-05-19T09:19:38.040Z,34.77
2019-05-19T09:22:09.001Z,34.70
2019-05-19T09:24:47.967Z,33.77
2019-05-19T09:27:22.198Z,33.13
2019-05-19T09:29:54.284Z,31.83
2019-05-19T09:32:24.983Z,30.33
2019-05-19T09:35:11.069Z,32.30
2019-05-19T09:37:40.256Z,32.67
2019-05-19T09:40:12.919Z,32.70
2019-05-19T09:42:41.734Z,32.13
2019-05-19T09:45:11.165Z,32.23
2019-05-19T09:47:41.869Z,31.13
2019-05-19T09:50:15.134Z,33.63
2019-05-19T09:52:44.275Z,31.93
2019-05-19T09:55:19.221Z,31.10
2019-05-19T09:57:49.816Z,33.83
2019-05-19T10:00:21.866Z,31.20
2019-05-19T10:02:56.474Z,31.03
2019-05-19T10:05:26.900Z,33.93
2019-05-19T10:08:01.404Z,34.67
2019-05-19T10:10:49.757Z,32.57
2019-05-19T10:13:20.474Z,33.17
2019-05-19T10:15:55.485Z,31.23
2019-05-19T10:18:28.538Z,31.97
2019-05-19T10:21:03.914Z,33.23
2019-05-19T10:23:35.765Z,31.53
2019-05-19T10:26:04.776Z,30.80
2019-05-19T10:28:39.770Z,30.90
2019-05-19T10:31:13.616Z,31.53
2019-05-19T10:33:51.621Z,31.87
2019-05-19T10:36:22.905Z,29.27
2019-05-19T10:38:59.438Z,30.37
2019-05-19T10:41:34.862Z,29.23
2019-05-19T10:44:01.197Z,30.50
2019-05-19T10:46:33.289Z,30.53
2019-05-19T10:49:14.317Z,30.50
2019-05-19T10:51:43.182Z,30.60
2019-05-19T10:54:16.665Z,32.53
2019-05-19T10:56:54.202Z,32.40
2019-05-19T10:59:24.778Z,32.23
2019-05-19T11:02:20.581Z,32.53
2019-05-19T11:04:49.720Z,31.13
2019-05-19T11:07:20.364Z,31.30
2019-05-19T11:09:59.509Z,30.87
2019-05-19T11:12:46.899Z,33.47
2019-05-19T11:15:23.177Z,31.63
2019-05-19T11:17:53.234Z,31.50
2019-05-19T11:20:39.178Z,32.03
2019-05-19T11:23:10.223Z,29.87
2019-05-19T11:25:51.382Z,29.73
2019-05-19T11:28:23.543Z,30.37
2019-05-19T11:31:00.834Z,28.07
2019-05-19T11:33:46.433Z,28.60
2019-05-19T11:36:03.810Z,28.57
2019-05-19T11:38:42.494Z,28.13
2019-05-19T11:46:51.096Z,28.13
2019-05-19T11:49:19.682Z,25.53
2019-05-19T11:51:48.650Z,26.43
2019-05-19T11:54:17.221Z,28.93
2019-05-19T11:56:45.795Z,28.97
2019-05-19T11:59:14.388Z,26.90
2019-05-19T12:01:43.116Z,28.33
2019-05-19T12:04:11.741Z,28.57
2019-05-19T12:06:58.166Z,27.57
2019-05-19T12:09:22.326Z,28.87
2019-05-19T12:11:51.093Z,27.77
2019-05-19T12:14:19.786Z,28.00
2019-05-19T12:16:48.438Z,27.67
2019-05-19T12:19:17.090Z,26.10
2019-05-19T12:21:45.675Z,25.90
2019-05-19T12:24:14.606Z,24.20
2019-05-19T12:26:43.260Z,23.07
2019-05-19T12:29:11.919Z,24.50
2019-05-19T12:31:40.486Z,23.83
2019-05-19T12:34:09.441Z,24.80
2019-05-19T12:36:38.051Z,24.27
2019-05-19T12:39:07.153Z,25.47
2019-05-19T12:41:35.757Z,24.20
2019-05-19T12:44:04.472Z,22.60
2019-05-19T12:46:33.068Z,23.77
2019-05-19T12:49:01.693Z,23.93
2019-05-19T12:51:30.298Z,22.47
2019-05-19T12:53:58.876Z,23.33
2019-05-19T12:56:39.056Z,23.00
2019-05-19T12:58:57.682Z,22.87
2019-05-19T13:01:26.340Z,20.87
2019-05-19T13:03:54.909Z,21.60
2019-05-19T13:06:23.513Z,22.00
2019-05-19T13:08:52.208Z,20.00
2019-05-19T13:11:20.765Z,22.23
2019-05-19T13:13:49.373Z,23.03
2019-05-19T13:16:17.985Z,22.10
2019-05-19T13:18:47.080Z,22.10
2019-05-19T13:21:16.004Z,23.10
2019-05-19T13:23:44.586Z,21.90
2019-05-19T13:26:13.210Z,22.60
2019-05-19T13:28:41.813Z,21.00
2019-05-19T13:31:10.406Z,20.70
2019-05-19T13:33:38.967Z,21.23
2019-05-19T13:36:07.652Z,22.20
2019-05-19T13:38:36.302Z,22.77
2019-05-19T13:41:05.050Z,22.30
2019-05-19T13:43:33.716Z,23.80
2019-05-19T13:46:02.364Z,23.57
2019-05-19T13:48:32.856Z,23.00
2019-05-19T13:51:01.443Z,22.70
2019-05-19T13:53:30.025Z,23.47
2019-05-19T13:55:58.634Z,23.73
2019-05-19T13:58:27.209Z,23.30
2019-05-19T14:00:55.784Z,24.20
2019-05-19T14:03:24.391Z,24.33
2019-05-19T14:05:52.979Z,23.20
2019-05-19T14:08:21.539Z,24.90
2019-05-19T14:10:50.623Z,25.37
2019-05-19T14:13:19.187Z,25.10
2019-05-19T14:15:47.863Z,24.97
2019-05-19T14:18:16.720Z,26.77
2019-05-19T14:20:45.313Z,25.60
2019-05-19T14:23:13.882Z,25.37
2019-05-19T14:25:42.453Z,27.37
2019-05-19T14:28:11.119Z,26.60
2019-05-19T14:30:39.694Z,26.20
2019-05-19T14:33:08.275Z,26.97
2019-05-19T14:35:37.199Z,27.53
2019-05-19T14:38:06.199Z,28.50
2019-05-19T14:40:35.026Z,27.07
2019-05-19T14:43:04.292Z,28.50
2019-05-19T14:45:33.109Z,28.27
2019-05-19T14:48:02.086Z,28.00
2019-05-19T14:50:30.683Z,26.27
2019-05-19T14:52:59.378Z,25.13
2019-05-19T14:55:28.077Z,25.20
2019-05-19T14:57:56.967Z,24.03
2019-05-19T15:00:25.666Z,24.43
2019-05-19T15:02:54.245Z,22.27
2019-05-19T15:05:22.842Z,19.00
2019-05-19T15:07:51.490Z,20.23
2019-05-19T15:10:20.326Z,18.73
2019-05-19T15:12:48.891Z,18.00
2019-05-19T15:15:17.834Z,16.83
2019-05-19T15:17:46.774Z,17.37
2019-05-19T15:20:16.001Z,17.00
2019-05-19T15:22:44.643Z,16.80
2019-05-19T15:25:13.323Z,17.17
2019-05-19T15:27:42.273Z,17.37
2019-05-19T15:30:13.704Z,16.43
2019-05-19T15:32:41.999Z,17.73
2019-05-19T15:35:11.314Z,19.90
2019-05-19T15:37:39.896Z,18.93
2019-05-19T15:40:09.697Z,17.83
2019-05-19T15:42:38.336Z,18.63
2019-05-19T15:45:07.382Z,17.30
2019-05-19T15:47:36.123Z,17.97
2019-05-19T15:50:06.738Z,17.13
2019-05-19T15:52:35.317Z,15.60
2019-05-19T15:55:04.803Z,15.20
2019-05-19T15:57:33.467Z,14.03
2019-05-19T16:00:03.035Z,13.97
2019-05-19T16:02:32.276Z,13.37
2019-05-19T16:05:00.920Z,12.03
2019-05-19T16:07:29.552Z,12.23
2019-05-19T16:09:58.114Z,12.30
2019-05-19T16:12:26.727Z,10.97
2019-05-19T16:14:55.291Z,11.57
2019-05-19T16:17:23.980Z,11.70
2019-05-19T16:19:52.547Z,13.63
2019-05-19T16:22:21.221Z,12.20
2019-05-19T16:24:49.793Z,12.93
2019-05-19T16:27:18.491Z,10.63
2019-05-19T16:29:47.087Z,10.87
2019-05-19T16:32:15.665Z,10.50
2019-05-19T16:34:44.268Z,10.53
2019-05-19T16:37:13.152Z,11.57
2019-05-19T16:39:41.741Z,10.53
2019-05-19T16:42:10.377Z,10.33
2019-05-19T16:44:38.952Z,11.07
2019-05-19T16:47:07.514Z,11.87
2019-05-19T16:49:36.604Z,10.07
2019-05-19T16:52:05.598Z,10.67
2019-05-19T16:54:35.815Z,9.83
2019-05-19T16:57:04.443Z,9.13
2019-05-19T16:59:33.370Z,8.27
2019-05-19T17:02:01.946Z,8.00
2019-05-19T17:04:30.524Z,7.63
2019-05-19T17:07:02.886Z,8.47
2019-05-19T17:09:29.671Z,8.90
2019-05-19T17:11:58.266Z,8.23
2019-05-19T17:14:26.891Z,8.90
2019-05-19T17:16:55.483Z,8.80
2019-05-19T17:19:24.103Z,8.30
2019-05-19T17:21:52.699Z,9.13
2019-05-19T17:24:21.267Z,10.33
2019-05-19T17:26:50.254Z,9.30
2019-05-19T17:29:18.879Z,9.37
2019-05-19T17:31:47.463Z,8.43
2019-05-19T17:34:16.090Z,8.50
2019-05-19T17:36:44.744Z,8.27
2019-05-19T17:39:13.453Z,7.53
2019-05-19T17:41:42.093Z,7.10
2019-05-19T17:44:10.759Z,7.93
2019-05-19T17:46:39.314Z,7.30
2019-05-19T17:49:07.907Z,7.50
2019-05-19T17:51:36.467Z,7.60
2019-05-19T17:54:05.308Z,7.10
2019-05-19T17:56:35.530Z,6.97
2019-05-19T17:59:15.874Z,6.23
2019-05-19T18:01:34.923Z,6.77
2019-05-19T18:04:03.876Z,6.43
2019-05-19T18:06:32.566Z,6.53
2019-05-19T18:09:01.444Z,6.50
2019-05-19T18:11:30.014Z,5.73
2019-05-19T18:13:58.690Z,6.70
2019-05-19T18:16:27.650Z,6.97
2019-05-19T18:18:56.237Z,7.40
2019-05-19T18:21:25.088Z,8.40
2019-05-19T18:23:53.749Z,7.37
2019-05-19T18:26:22.347Z,8.20
2019-05-19T18:28:50.968Z,8.00
2019-05-19T18:31:19.573Z,8.50
2019-05-19T18:33:48.452Z,8.90
2019-05-19T18:36:17.069Z,8.43
2019-05-19T18:38:46.045Z,9.07
2019-05-19T18:41:14.936Z,9.57
2019-05-19T18:43:43.503Z,9.87
2019-05-19T18:46:12.164Z,10.30
2019-05-19T18:48:40.785Z,10.97
2019-05-19T18:51:09.437Z,10.53
2019-05-19T18:53:38.065Z,10.50
2019-05-19T18:56:06.587Z,9.67
2019-05-19T18:58:35.172Z,10.27
2019-05-19T19:01:04.197Z,10.53
2019-05-19T19:03:32.901Z,8.90
2019-05-19T19:06:01.952Z,10.53
2019-05-19T19:08:30.505Z,11.37
2019-05-19T19:10:59.112Z,11.20
2019-05-19T19:13:28.019Z,10.43
2019-05-19T19:15:56.909Z,11.10
2019-05-19T19:18:25.499Z,10.97
2019-05-19T19:20:54.366Z,12.37
2019-05-19T19:23:22.934Z,12.33
2019-05-19T19:25:51.530Z,13.07
2019-05-19T19:28:20.082Z,11.97
2019-05-19T19:30:48.791Z,13.03
2019-05-19T19:33:17.342Z,13.07
2019-05-19T19:35:46.730Z,12.80
2019-05-19T19:38:15.417Z,14.07
2019-05-19T19:40:43.981Z,14.03
2019-05-19T19:43:12.713Z,12.43
2019-05-19T19:45:41.358Z,12.80
2019-05-19T19:48:09.956Z,11.57
2019-05-19T19:50:38.896Z,12.13
2019-05-19T19:53:07.471Z,11.07
2019-05-19T19:55:36.044Z,12.63
2019-05-19T19:58:05.061Z,13.30
2019-05-19T20:00:39.197Z,12.93
2019-05-19T20:03:08.051Z,12.93
2019-05-19T20:05:36.695Z,12.77
2019-05-19T20:08:06.461Z,13.50
2019-05-19T20:10:36.287Z,12.70
2019-05-19T20:13:05.612Z,12.77
2019-05-19T20:15:34.749Z,13.30
2019-05-19T20:18:03.311Z,11.50
2019-05-19T20:20:31.966Z,12.83
2019-05-19T20:23:00.571Z,15.80
2019-05-19T20:25:29.435Z,14.60
2019-05-19T20:27:58.177Z,15.43
2019-05-19T20:30:35.730Z,16.30
2019-05-19T20:32:56.969Z,15.50
2019-05-19T20:35:25.584Z,16.40
2019-05-19T20:37:54.178Z,16.90
2019-05-19T20:40:22.924Z,17.30
2019-05-19T20:42:51.955Z,17.27
2019-05-19T20:45:20.642Z,20.50
2019-05-19T20:47:49.240Z,22.50
2019-05-19T20:50:18.194Z,22.17
2019-05-19T20:52:46.782Z,22.77
2019-05-19T20:55:15.501Z,24.40
2019-05-19T20:57:44.348Z,25.90
2019-05-19T21:00:13.364Z,27.53
2019-05-19T21:02:41.922Z,30.27
2019-05-19T21:05:10.747Z,32.53
2019-05-19T21:07:39.614Z,31.23
2019-05-19T21:10:08.440Z,32.30
2019-05-19T21:12:39.176Z,34.73
2019-05-19T21:15:08.054Z,37.20
2019-05-19T21:17:39.936Z,38.23
2019-05-19T21:20:09.044Z,39.13
2019-05-19T21:22:37.598Z,41.27
2019-05-19T21:25:07.657Z,41.40
2019-05-19T21:27:36.335Z,41.73
2019-05-19T21:30:06.155Z,42.90
2019-05-19T21:32:34.741Z,43.30
2019-05-19T21:35:04.255Z,47.73
2019-05-19T21:37:32.911Z,43.60
2019-05-19T21:40:01.488Z,41.30
2019-05-19T21:42:30.108Z,40.83
2019-05-19T21:44:58.738Z,43.13
2019-05-19T21:47:27.355Z,42.37
2019-05-19T21:49:55.925Z,44.70
2019-05-19T21:52:24.591Z,45.17
2019-05-19T21:54:53.155Z,44.40
2019-05-19T21:57:22.595Z,42.33
2019-05-19T21:59:51.154Z,43.30
2019-05-19T22:02:19.959Z,45.83
2019-05-19T22:04:48.813Z,46.37
2019-05-19T22:07:21.729Z,43.33
2019-05-19T22:09:50.721Z,44.50
2019-05-19T22:12:19.314Z,43.57
2019-05-19T22:14:47.950Z,44.93
2019-05-19T22:17:16.555Z,42.47
2019-05-19T22:19:45.462Z,43.07
2019-05-19T22:22:14.070Z,43.90
2019-05-19T22:24:42.644Z,43.27
2019-05-19T22:27:11.331Z,42.83
2019-05-19T22:29:39.906Z,42.43
2019-05-19T22:32:08.547Z,41.77
2019-05-19T22:34:37.134Z,43.37
2019-05-19T22:37:05.704Z,41.93
2019-05-19T22:39:34.312Z,43.33
2019-05-19T22:42:02.963Z,46.73
2019-05-19T22:44:31.554Z,43.57
2019-05-19T22:47:00.131Z,46.50
2019-05-19T22:49:28.723Z,44.13
2019-05-19T22:51:57.285Z,46.30
2019-05-19T22:54:25.919Z,43.13
2019-05-19T22:56:54.481Z,42.53
2019-05-19T22:59:23.075Z,43.83
2019-05-19T23:01:52.292Z,41.97
2019-05-19T23:04:20.942Z,43.10
2019-05-19T23:06:49.503Z,45.57
2019-05-19T23:09:18.087Z,48.67
2019-05-19T23:11:46.734Z,48.07
2019-05-19T23:14:15.340Z,47.93
2019-05-19T23:16:43.971Z,45.93
2019-05-19T23:19:12.567Z,46.80
2019-05-19T23:21:41.148Z,46.13
2019-05-19T23:24:09.823Z,42.97
2019-05-19T23:26:38.405Z,40.77
2019-05-19T23:29:07.085Z,42.77
2019-05-19T23:31:35.649Z,42.03
2019-05-19T23:34:04.256Z,41.33
2019-05-19T23:36:32.897Z,40.53
2019-05-19T23:39:01.479Z,38.50
2019-05-19T23:41:30.207Z,41.57
2019-05-19T23:43:58.774Z,42.23
2019-05-19T23:46:27.671Z,43.07
2019-05-19T23:48:56.235Z,40.97
2019-05-19T23:51:25.253Z,34.23
2019-05-19T23:53:53.833Z,44.00
2019-05-19T23:56:22.429Z,41.77
2019-05-19T23:58:50.991Z,44.97
